Danbury Municipal Airport

Airport
ICAO code: 
KDXR
IATA Code: 
DXR
Summary
ICAO Region: 
NAM
Territory: 
Location: 
Danbury, Connecticut,
Serving: 
Danbury
Elevation: 
458 ft
Coordinates: 
Aerial View: 
41° 22' 17.526" N, 73° 28' 55.888" W
Airport WX: 
Cumulonimbus
Metar
Observation
KDXR 040553Z AUTO 00000KT 10SM OVC110 M01/M06 A3007 RMK AO2 SLP187 T10061061 10028 21017 51011
Station
Danbury, Danbury Municipal Airport
Date/Time
2021-12-04 05:53:00
Wind direction
Wind speed
00 kts
Lowest cloud amount
overcast
Temperature
-0.6°C
Dew point
-6.1°C
Humidity
66%
Weather condition
n/a

Description

Danbury Municipal Airport is a public use general aviation and designated reliever airport located 5 km southwest of the central business district of Danbury, in Fairfield County, Connecticut.

Climatology

Humid “subtropical”/Continental climate (Köppen climate classification Cfa/Dfa) - characterized by hot, humid summers and cool/cold winters. Significant amounts of precipitation occur in all seasons in most areas. Winter rainfall (and snowfall) is associated with large storms that the westerlies steer from west to east. Most summer rainfall occurs during thunderstorms.

Runways

Designator Length Width Surface Rops
17/35 956 30 ASP Yes/Yes
8/26 1348 46 ASP Yes/Yes
Airport map: 
Aerial View: 

SKYbrary Partners:

Safety knowledge contributed by: